Time;durP1;ratioP1;P1;durP2;ratioP2;P2;SDS_P1;SDS_P2;PMS_P1;PMS_P2;Temp;Humidity;BMP_temperature;BMP_pressure;BME280_temperature;BME280_humidity;BME280_pressure;Samples;Min_cycle;Max_cycle;Signal;HPM_P1;HPM_P2
2022/08/07 00:00:05;;;;;;;4.25;1.98;;;21.90;99.90;;;;;;1038795;28;20326;-64
2022/08/07 00:00:36;;;;;;;2.25;1.63;;;21.90;99.90;;;;;;1038610;28;20017;-64
2022/08/07 00:01:07;;;;;;;3.40;1.33;;;21.90;99.90;;;;;;1038991;28;20021;-65
2022/08/07 00:01:37;;;;;;;2.40;1.60;;;21.90;99.90;;;;;;1041169;28;20109;-64
2022/08/07 00:02:08;;;;;;;1.87;1.60;;;22.00;99.90;;;;;;1043004;28;20100;-64
2022/08/07 00:02:38;;;;;;;4.33;1.90;;;21.90;99.90;;;;;;1042923;28;20119;-65
2022/08/07 00:03:09;;;;;;;2.80;1.53;;;21.90;99.90;;;;;;1042792;28;20095;-64
2022/08/07 00:03:40;;;;;;;1.83;1.30;;;21.90;99.90;;;;;;1042863;28;20017;-65
2022/08/07 00:04:11;;;;;;;1.92;1.40;;;21.90;99.90;;;;;;1042985;28;20376;-63
2022/08/07 00:04:43;;;;;;;3.58;1.55;;;21.90;99.90;;;;;;1042866;28;20088;-64
2022/08/07 00:05:13;;;;;;;1.63;1.50;;;21.90;99.90;;;;;;1042882;28;20133;-65
2022/08/07 00:05:44;;;;;;;3.13;1.50;;;21.80;99.90;;;;;;1042967;28;20024;-63
2022/08/07 00:06:15;;;;;;;2.03;1.60;;;21.80;99.90;;;;;;1042868;28;20832;-64
2022/08/07 00:06:45;;;;;;;2.37;1.60;;;21.80;99.90;;;;;;1042880;28;20021;-64
2022/08/07 00:07:17;;;;;;;1.87;1.40;;;21.80;99.90;;;;;;1042956;28;20025;-64
2022/08/07 00:07:48;;;;;;;2.25;1.88;;;21.80;99.90;;;;;;1042965;28;20029;-65
2022/08/07 00:08:19;;;;;;;2.50;1.43;;;21.80;99.90;;;;;;1042682;28;20116;-64
2022/08/07 00:08:50;;;;;;;2.72;1.98;;;21.80;99.90;;;;;;1042961;28;20675;-64
2022/08/07 00:09:20;;;;;;;3.37;1.67;;;21.80;99.90;;;;;;1042896;28;20639;-65
2022/08/07 00:09:51;;;;;;;3.07;1.90;;;21.80;99.90;;;;;;1042895;28;20017;-65
2022/08/07 00:10:22;;;;;;;1.83;1.40;;;21.80;99.90;;;;;;1042933;28;20024;-64
2022/08/07 00:10:52;;;;;;;3.40;1.73;;;21.80;99.90;;;;;;1042808;28;20100;-65
2022/08/07 00:11:23;;;;;;;2.37;1.90;;;21.80;99.90;;;;;;1043009;28;20338;-65
2022/08/07 00:11:54;;;;;;;2.13;1.50;;;21.80;99.90;;;;;;1042588;28;20021;-65
2022/08/07 00:12:25;;;;;;;2.38;1.40;;;21.80;99.90;;;;;;1042854;28;20024;-64
2022/08/07 00:12:57;;;;;;;3.83;2.30;;;21.80;99.90;;;;;;1042818;28;20017;-64
2022/08/07 00:13:27;;;;;;;3.78;1.85;;;21.70;99.90;;;;;;1042903;28;20013;-64
2022/08/07 00:13:58;;;;;;;1.63;1.43;;;21.80;99.90;;;;;;1040611;28;20036;-64
2022/08/07 00:14:29;;;;;;;2.47;1.50;;;21.70;99.90;;;;;;1043155;28;20050;-65
2022/08/07 00:15:00;;;;;;;2.60;1.92;;;21.70;99.90;;;;;;1039011;28;20017;-65
2022/08/07 00:15:31;;;;;;;1.77;1.43;;;21.70;99.90;;;;;;1039147;28;20362;-64
2022/08/07 00:16:04;;;;;;;2.15;1.60;;;21.70;99.90;;;;;;1042770;28;20045;-65
2022/08/07 00:16:34;;;;;;;1.95;1.30;;;21.70;99.90;;;;;;1043074;28;20024;-64
2022/08/07 00:17:05;;;;;;;3.50;1.60;;;21.70;99.90;;;;;;1043167;28;20025;-64
2022/08/07 00:17:35;;;;;;;3.37;1.83;;;21.70;99.90;;;;;;1042618;28;20524;-65
2022/08/07 00:18:08;;;;;;;4.03;1.70;;;21.70;99.90;;;;;;1042535;28;20040;-65
2022/08/07 00:18:38;;;;;;;3.17;1.40;;;21.70;99.90;;;;;;1042821;28;20381;-64
2022/08/07 00:19:09;;;;;;;2.27;1.40;;;21.70;99.90;;;;;;1042803;28;20024;-64
2022/08/07 00:19:40;;;;;;;2.13;1.43;;;21.80;99.90;;;;;;1043140;28;20817;-65
2022/08/07 00:20:10;;;;;;;2.23;1.50;;;21.70;99.90;;;;;;1043055;28;20040;-64
2022/08/07 00:20:41;;;;;;;3.03;1.50;;;21.70;99.90;;;;;;1043188;28;20017;-65
2022/08/07 00:21:11;;;;;;;2.10;1.70;;;21.70;99.90;;;;;;1042908;28;20084;-65
2022/08/07 00:21:42;;;;;;;2.00;1.40;;;21.70;99.90;;;;;;1043177;28;20043;-64
2022/08/07 00:22:12;;;;;;;1.60;1.33;;;21.70;99.90;;;;;;1040925;28;20021;-64
2022/08/07 00:22:43;;;;;;;2.63;1.80;;;21.70;99.90;;;;;;1039003;28;20101;-64
2022/08/07 00:23:13;;;;;;;2.90;1.30;;;21.70;99.90;;;;;;1038870;28;20080;-64
2022/08/07 00:23:44;;;;;;;3.63;1.83;;;21.70;99.90;;;;;;1039488;28;20018;-65
2022/08/07 00:24:15;;;;;;;3.73;1.87;;;21.70;99.90;;;;;;1042879;28;20258;-64
2022/08/07 00:24:45;;;;;;;2.70;1.60;;;21.70;99.90;;;;;;1039278;28;20480;-65
2022/08/07 00:25:16;;;;;;;1.53;1.37;;;21.70;99.90;;;;;;1038834;28;20017;-64
2022/08/07 00:25:46;;;;;;;1.93;1.43;;;21.60;99.90;;;;;;1040505;28;20017;-65
2022/08/07 00:26:17;;;;;;;2.30;1.57;;;21.60;99.90;;;;;;1038828;28;20416;-64
2022/08/07 00:26:48;;;;;;;2.73;1.50;;;21.60;99.90;;;;;;1039157;28;20029;-65
2022/08/07 00:27:18;;;;;;;2.73;1.30;;;21.60;99.90;;;;;;1040328;28;20013;-65
2022/08/07 00:27:50;;;;;;;2.70;1.50;;;21.60;99.90;;;;;;1043064;28;20036;-65
2022/08/07 00:28:20;;;;;;;2.85;1.58;;;21.70;99.90;;;;;;1042924;28;20017;-64
2022/08/07 00:28:51;;;;;;;2.17;1.47;;;21.60;99.90;;;;;;1043067;28;20047;-64
2022/08/07 00:29:24;;;;;;;2.80;1.47;;;21.60;99.90;;;;;;1043030;28;20119;-65
2022/08/07 00:29:55;;;;;;;2.58;1.77;;;21.60;99.90;;;;;;1043136;28;20021;-65
2022/08/07 00:30:26;;;;;;;2.40;1.57;;;21.60;99.90;;;;;;1042781;28;20094;-65
2022/08/07 00:30:57;;;;;;;2.10;1.63;;;21.60;99.90;;;;;;1039245;28;20018;-65
2022/08/07 00:31:27;;;;;;;1.60;1.47;;;21.60;99.90;;;;;;1038998;28;20037;-64
2022/08/07 00:31:58;;;;;;;3.03;1.93;;;21.60;99.90;;;;;;1038798;28;20070;-64
2022/08/07 00:32:29;;;;;;;3.03;1.83;;;21.60;99.90;;;;;;1041210;28;20025;-64
2022/08/07 00:33:00;;;;;;;2.07;1.60;;;21.60;99.90;;;;;;1043096;28;20116;-64
2022/08/07 00:33:30;;;;;;;3.33;1.63;;;21.60;99.90;;;;;;1043064;28;20017;-64
2022/08/07 00:34:01;;;;;;;4.97;1.67;;;21.60;99.90;;;;;;1042927;28;20088;-64
2022/08/07 00:34:32;;;;;;;1.83;1.53;;;21.60;99.90;;;;;;1043047;28;20045;-64
2022/08/07 00:35:03;;;;;;;2.47;1.53;;;21.60;99.90;;;;;;1043082;28;20456;-64
2022/08/07 00:35:34;;;;;;;3.00;1.75;;;21.60;99.90;;;;;;1042991;28;20025;-64
2022/08/07 00:36:06;;;;;;;2.57;1.50;;;21.60;99.90;;;;;;1042847;28;20017;-64
2022/08/07 00:36:37;;;;;;;2.13;1.55;;;21.60;99.90;;;;;;1042901;28;20255;-68
2022/08/07 00:37:08;;;;;;;2.67;1.60;;;20.30;99.90;;;;;;1043058;28;20468;-66
2022/08/07 00:37:38;;;;;;;4.07;2.20;;;21.60;99.90;;;;;;1042966;28;20660;-64
2022/08/07 00:38:09;;;;;;;2.43;1.57;;;21.60;99.90;;;;;;1042805;28;20032;-66
2022/08/07 00:38:40;;;;;;;2.17;1.40;;;21.60;99.90;;;;;;1042935;28;20025;-65
2022/08/07 00:39:11;;;;;;;2.00;1.50;;;21.60;99.90;;;;;;1042803;28;20052;-65
2022/08/07 00:39:42;;;;;;;3.13;2.10;;;21.60;99.90;;;;;;1043245;28;20021;-65
2022/08/07 00:40:13;;;;;;;2.10;1.50;;;21.60;99.90;;;;;;1042866;28;20056;-65
2022/08/07 00:40:44;;;;;;;2.97;1.70;;;21.60;99.90;;;;;;1043105;28;20261;-65
2022/08/07 00:41:14;;;;;;;2.53;1.67;;;21.60;99.90;;;;;;1041926;28;20025;-65
2022/08/07 00:41:50;;;;;;;4.93;1.60;;;21.60;99.90;;;;;;1039053;28;20104;-65
2022/08/07 00:42:21;;;;;;;2.65;1.75;;;21.60;99.90;;;;;;1038625;28;20045;-65
2022/08/07 00:42:51;;;;;;;2.35;1.50;;;21.60;99.90;;;;;;1042801;28;20021;-65
2022/08/07 00:43:22;;;;;;;1.80;1.60;;;21.60;99.90;;;;;;1042801;28;20109;-65
2022/08/07 00:43:52;;;;;;;2.10;1.30;;;21.60;99.90;;;;;;1043186;28;20480;-65
2022/08/07 00:44:23;;;;;;;1.63;1.37;;;21.60;99.90;;;;;;1042724;28;20476;-65
2022/08/07 00:44:54;;;;;;;1.87;1.43;;;21.50;99.90;;;;;;1043203;28;20094;-65
2022/08/07 00:45:25;;;;;;;1.57;1.33;;;21.60;99.90;;;;;;1041851;28;20727;-65
2022/08/07 00:45:56;;;;;;;5.77;2.30;;;21.60;99.90;;;;;;1039910;28;20024;-65
2022/08/07 00:46:27;;;;;;;3.33;1.77;;;21.50;99.90;;;;;;1042861;28;20020;-65
2022/08/07 00:46:57;;;;;;;3.63;1.60;;;21.50;99.90;;;;;;1043076;28;20104;-65
2022/08/07 00:47:28;;;;;;;3.30;1.50;;;21.50;99.90;;;;;;1042945;28;20021;-65
2022/08/07 00:47:58;;;;;;;2.03;1.63;;;21.50;99.90;;;;;;1042923;28;20021;-65
2022/08/07 00:48:30;;;;;;;1.70;1.50;;;21.50;99.90;;;;;;1042781;28;20021;-65
2022/08/07 00:49:01;;;;;;;2.38;1.60;;;21.50;99.90;;;;;;1043026;28;20017;-65
2022/08/07 00:49:32;;;;;;;2.08;1.45;;;21.50;99.90;;;;;;1042865;28;20088;-65
2022/08/07 00:50:03;;;;;;;1.53;1.43;;;21.50;99.90;;;;;;1043077;28;20013;-64
2022/08/07 00:50:35;;;;;;;2.20;1.70;;;21.50;99.90;;;;;;1042916;28;20063;-64
2022/08/07 00:51:07;;;;;;;2.00;1.50;;;21.50;99.90;;;;;;1043035;28;20600;-65
2022/08/07 00:51:37;;;;;;;1.98;1.55;;;21.50;99.90;;;;;;1042532;28;20013;-64
2022/08/07 00:52:08;;;;;;;3.17;1.80;;;21.50;99.90;;;;;;1042778;28;20036;-65
2022/08/07 00:52:39;;;;;;;1.85;1.45;;;21.50;99.90;;;;;;1042460;28;20094;-64
2022/08/07 00:53:10;;;;;;;2.37;1.60;;;21.50;99.90;;;;;;1042717;28;20005;-65
2022/08/07 00:53:40;;;;;;;1.47;1.20;;;21.50;99.90;;;;;;1042653;28;20636;-64
2022/08/07 00:54:14;;;;;;;3.27;1.83;;;21.50;99.90;;;;;;1043017;28;20028;-65
2022/08/07 00:54:46;;;;;;;2.17;1.50;;;21.50;99.90;;;;;;1042509;28;20445;-65
2022/08/07 00:55:16;;;;;;;2.90;1.33;;;21.40;99.90;;;;;;1042651;28;20091;-65
2022/08/07 00:55:47;;;;;;;2.83;1.93;;;21.50;99.90;;;;;;1042766;28;20078;-64
2022/08/07 00:56:18;;;;;;;3.03;1.63;;;21.50;99.90;;;;;;1042559;28;20027;-64
2022/08/07 00:56:50;;;;;;;1.50;1.23;;;21.40;99.90;;;;;;1040229;28;20014;-64
2022/08/07 00:57:23;;;;;;;1.63;1.20;;;21.40;99.90;;;;;;1038766;28;20017;-64
2022/08/07 00:57:53;;;;;;;1.58;1.48;;;21.40;99.90;;;;;;1039789;28;20081;-64
2022/08/07 00:58:24;;;;;;;2.20;1.60;;;21.40;99.90;;;;;;1042963;28;20073;-65
2022/08/07 00:58:55;;;;;;;1.57;1.30;;;21.40;99.90;;;;;;1043017;28;20509;-64
2022/08/07 00:59:26;;;;;;;2.50;1.48;;;21.40;99.90;;;;;;1042936;28;20112;-64
2022/08/07 00:59:57;;;;;;;2.00;1.30;;;21.40;99.90;;;;;;1042923;28;20032;-64
2022/08/07 01:00:28;;;;;;;3.17;1.65;;;21.40;99.90;;;;;;1042498;28;20095;-64
2022/08/07 01:00:59;;;;;;;3.47;1.70;;;21.40;99.90;;;;;;1042661;28;20086;-64
2022/08/07 01:01:30;;;;;;;3.30;1.80;;;21.40;99.90;;;;;;1042465;28;20118;-64
2022/08/07 01:02:01;;;;;;;1.80;1.27;;;21.40;99.90;;;;;;1042606;28;20104;-64
2022/08/07 01:02:32;;;;;;;1.83;1.35;;;21.40;99.90;;;;;;1042894;28;20150;-63
2022/08/07 01:03:03;;;;;;;4.00;1.63;;;21.40;99.90;;;;;;1043037;28;20504;-64
2022/08/07 01:03:34;;;;;;;2.80;1.90;;;21.40;99.90;;;;;;1042839;28;20024;-64
2022/08/07 01:04:06;;;;;;;3.00;1.93;;;21.40;99.90;;;;;;1043057;28;20028;-64
2022/08/07 01:04:38;;;;;;;1.48;1.10;;;21.40;99.90;;;;;;1039364;28;20053;-65
2022/08/07 01:05:09;;;;;;;2.35;1.77;;;21.40;99.90;;;;;;1042939;28;20031;-64
2022/08/07 01:05:43;;;;;;;2.95;1.63;;;21.30;99.90;;;;;;1043048;28;20021;-63
2022/08/07 01:06:14;;;;;;;3.42;1.75;;;21.40;99.90;;;;;;1042875;28;20015;-63
2022/08/07 01:06:45;;;;;;;1.70;1.42;;;21.40;99.90;;;;;;1042956;28;20076;-64
2022/08/07 01:07:17;;;;;;;4.93;1.40;;;21.40;99.90;;;;;;1043040;28;20433;-65
2022/08/07 01:07:48;;;;;;;2.17;1.23;;;21.40;99.90;;;;;;1043042;28;20028;-63
2022/08/07 01:08:19;;;;;;;2.13;1.60;;;21.40;99.90;;;;;;1042803;28;20032;-64
2022/08/07 01:08:50;;;;;;;3.15;1.95;;;21.40;99.90;;;;;;1043239;28;20365;-64
2022/08/07 01:09:22;;;;;;;3.10;2.10;;;21.30;99.90;;;;;;1042758;28;20460;-64
2022/08/07 01:09:53;;;;;;;2.70;1.77;;;21.40;99.90;;;;;;1042930;28;20767;-64
2022/08/07 01:10:24;;;;;;;1.80;1.63;;;21.30;99.90;;;;;;1042869;28;20768;-64
2022/08/07 01:10:55;;;;;;;2.03;1.70;;;21.30;99.90;;;;;;1043051;28;20160;-64
2022/08/07 01:11:26;;;;;;;2.63;1.33;;;21.30;99.90;;;;;;1042899;28;20025;-64
2022/08/07 01:11:57;;;;;;;1.88;1.48;;;21.30;99.90;;;;;;1041969;28;20025;-64
2022/08/07 01:12:27;;;;;;;3.83;1.50;;;21.30;99.90;;;;;;1038718;28;20032;-64
2022/08/07 01:12:58;;;;;;;1.97;1.60;;;21.30;99.90;;;;;;1038855;28;20610;-64
2022/08/07 01:13:29;;;;;;;2.40;1.67;;;21.30;99.90;;;;;;1041985;28;20036;-64
2022/08/07 01:14:00;;;;;;;2.47;1.60;;;21.30;99.90;;;;;;1042791;28;20032;-64
2022/08/07 01:14:31;;;;;;;2.28;1.60;;;21.30;99.90;;;;;;1042868;28;20027;-64
2022/08/07 01:15:03;;;;;;;2.63;1.57;;;21.30;99.90;;;;;;1042865;28;20028;-64
2022/08/07 01:15:34;;;;;;;3.17;1.50;;;21.30;99.90;;;;;;1042915;28;20040;-64
2022/08/07 01:16:06;;;;;;;1.67;1.40;;;21.30;99.90;;;;;;1042443;28;20025;-64
2022/08/07 01:16:37;;;;;;;1.83;1.27;;;21.30;99.90;;;;;;1042388;28;20119;-64
2022/08/07 01:17:09;;;;;;;2.58;1.60;;;21.30;99.90;;;;;;1042590;28;20017;-64
2022/08/07 01:17:40;;;;;;;1.77;1.27;;;21.30;99.90;;;;;;1042626;28;20025;-64
2022/08/07 01:18:11;;;;;;;2.90;1.67;;;21.30;99.90;;;;;;1042587;28;20021;-64
2022/08/07 01:18:42;;;;;;;1.70;1.30;;;21.30;99.90;;;;;;1042655;28;20100;-64
2022/08/07 01:19:13;;;;;;;1.98;1.50;;;21.30;99.90;;;;;;1042414;28;20023;-64
2022/08/07 01:19:44;;;;;;;2.13;1.40;;;21.30;99.90;;;;;;1043153;28;20021;-64
2022/08/07 01:20:16;;;;;;;3.63;1.50;;;21.30;99.90;;;;;;1042028;28;20029;-64
2022/08/07 01:21:12;;;;;;;2.65;1.40;;;21.30;99.90;;;;;;1040744;28;20066;-64
2022/08/07 01:21:43;;;;;;;1.85;1.55;;;21.20;99.90;;;;;;1039653;28;20023;-63
2022/08/07 01:22:14;;;;;;;1.97;1.77;;;21.20;99.90;;;;;;1042745;28;20028;-64
2022/08/07 01:22:45;;;;;;;2.43;1.80;;;21.30;99.90;;;;;;1043129;28;20267;-63
2022/08/07 01:23:16;;;;;;;1.50;1.30;;;21.20;99.90;;;;;;1042735;28;20024;-63
2022/08/07 01:23:47;;;;;;;1.60;1.50;;;21.20;99.90;;;;;;1043157;28;20052;-64
2022/08/07 01:24:18;;;;;;;1.90;1.40;;;21.20;99.90;;;;;;1042630;28;20031;-64
2022/08/07 01:24:49;;;;;;;1.67;1.40;;;21.20;99.90;;;;;;1043171;28;20559;-64
2022/08/07 01:25:20;;;;;;;2.27;1.50;;;21.20;99.90;;;;;;1042765;28;20463;-64
2022/08/07 01:25:50;;;;;;;4.20;2.03;;;21.20;99.90;;;;;;1043015;28;20025;-64
2022/08/07 01:26:22;;;;;;;1.77;1.40;;;21.20;99.90;;;;;;1042762;28;20571;-64
2022/08/07 01:26:53;;;;;;;3.03;2.03;;;21.20;99.90;;;;;;1042998;28;20284;-64
2022/08/07 01:27:24;;;;;;;3.20;1.80;;;21.20;99.90;;;;;;1040632;28;20104;-64
2022/08/07 01:27:55;;;;;;;2.23;1.70;;;21.20;99.90;;;;;;1039058;28;20047;-64
2022/08/07 01:28:25;;;;;;;1.83;1.47;;;21.20;99.90;;;;;;1038723;28;20079;-64
2022/08/07 01:28:56;;;;;;;1.90;1.47;;;21.20;99.90;;;;;;1042304;28;20275;-64
2022/08/07 01:29:29;;;;;;;1.48;1.38;;;21.20;99.90;;;;;;1042875;28;20098;-63
2022/08/07 01:30:00;;;;;;;2.15;1.55;;;21.20;99.90;;;;;;1042971;28;20028;-64
2022/08/07 01:30:31;;;;;;;3.55;1.60;;;21.20;99.90;;;;;;1042575;28;20123;-64
2022/08/07 01:31:03;;;;;;;2.00;1.42;;;21.20;99.90;;;;;;1043065;28;20017;-64
2022/08/07 01:31:33;;;;;;;1.88;1.52;;;21.10;99.90;;;;;;1042949;28;20021;-65
2022/08/07 01:32:04;;;;;;;1.80;1.40;;;21.20;99.90;;;;;;1042915;28;20114;-65
2022/08/07 01:32:35;;;;;;;2.13;1.30;;;21.10;99.90;;;;;;1042732;28;20027;-65
2022/08/07 01:33:06;;;;;;;2.80;1.60;;;21.10;99.90;;;;;;1043137;28;20020;-65
2022/08/07 01:33:37;;;;;;;1.40;1.27;;;21.10;99.90;;;;;;1042791;28;20032;-63
2022/08/07 01:34:07;;;;;;;2.10;1.33;;;21.20;99.90;;;;;;1042615;28;20385;-65
2022/08/07 01:34:38;;;;;;;2.23;1.40;;;21.20;99.90;;;;;;1046104;28;20534;-65
2022/08/07 01:35:09;;;;;;;1.93;1.63;;;21.10;99.90;;;;;;1046760;28;20020;-65
2022/08/07 01:35:40;;;;;;;2.58;1.73;;;21.10;99.90;;;;;;1043440;28;20763;-65
2022/08/07 01:36:11;;;;;;;2.27;1.40;;;21.10;99.90;;;;;;1042889;28;20024;-65
2022/08/07 01:36:42;;;;;;;2.67;1.70;;;21.10;99.90;;;;;;1042925;28;20116;-65
2022/08/07 01:37:16;;;;;;;2.53;1.57;;;21.10;99.90;;;;;;1042835;28;20213;-65
2022/08/07 01:37:46;;;;;;;2.75;1.70;;;21.10;99.90;;;;;;1042876;28;20104;-65
2022/08/07 01:38:18;;;;;;;1.83;1.43;;;21.10;99.90;;;;;;1042719;28;20017;-65
2022/08/07 01:38:48;;;;;;;1.85;1.30;;;21.10;99.90;;;;;;1043054;28;20021;-65
2022/08/07 01:39:19;;;;;;;1.87;1.47;;;21.10;99.90;;;;;;1042805;28;20077;-65
2022/08/07 01:39:50;;;;;;;2.53;1.67;;;21.10;99.90;;;;;;1043637;28;20027;-63
2022/08/07 01:40:23;;;;;;;2.00;1.30;;;21.10;99.90;;;;;;1043532;28;20021;-64
2022/08/07 01:40:57;;;;;;;2.17;1.80;;;21.10;99.90;;;;;;1043484;28;20036;-64
2022/08/07 01:41:28;;;;;;;1.55;1.20;;;21.10;99.90;;;;;;1043775;28;20021;-64
2022/08/07 01:41:58;;;;;;;2.57;1.70;;;21.10;99.90;;;;;;1043522;28;20061;-64
2022/08/07 01:42:29;;;;;;;4.17;2.10;;;21.10;99.90;;;;;;1043515;28;20032;-64
2022/08/07 01:42:59;;;;;;;2.87;1.53;;;21.10;99.90;;;;;;1040189;28;20036;-64
2022/08/07 01:43:30;;;;;;;3.47;1.67;;;21.10;99.90;;;;;;1039605;28;20048;-64
2022/08/07 01:44:02;;;;;;;1.70;1.40;;;21.00;99.90;;;;;;1039495;28;20048;-65
2022/08/07 01:44:33;;;;;;;1.83;1.40;;;21.00;99.90;;;;;;1039481;28;20657;-64
2022/08/07 01:45:05;;;;;;;2.00;1.80;;;21.10;99.90;;;;;;1039765;28;20456;-64
2022/08/07 01:45:36;;;;;;;3.67;1.73;;;21.10;99.90;;;;;;1040063;28;20033;-64
2022/08/07 01:46:07;;;;;;;2.27;1.90;;;21.10;99.90;;;;;;1043892;28;20033;-64
2022/08/07 01:46:41;;;;;;;2.10;1.35;;;21.00;99.90;;;;;;1043480;28;20021;-64
2022/08/07 01:47:12;;;;;;;2.60;1.83;;;21.10;99.90;;;;;;1043862;28;20021;-64
2022/08/07 01:47:43;;;;;;;2.37;1.47;;;21.00;99.90;;;;;;1043830;28;20025;-65
2022/08/07 01:48:13;;;;;;;2.03;1.60;;;21.00;99.90;;;;;;1043541;28;20048;-64
2022/08/07 01:48:45;;;;;;;2.97;1.50;;;21.10;99.90;;;;;;1043810;28;20563;-64
2022/08/07 01:49:16;;;;;;;2.30;1.70;;;21.00;99.90;;;;;;1043432;28;20650;-64
2022/08/07 01:49:46;;;;;;;2.20;1.90;;;21.00;99.90;;;;;;1043676;28;20481;-64
2022/08/07 01:50:17;;;;;;;3.90;1.80;;;21.00;99.90;;;;;;1043612;28;20024;-64
2022/08/07 01:50:52;;;;;;;1.70;1.50;;;21.00;99.90;;;;;;1043716;28;20443;-64
2022/08/07 01:51:24;;;;;;;3.72;1.75;;;21.00;99.90;;;;;;1043630;28;20048;-64
2022/08/07 01:51:57;;;;;;;2.15;1.63;;;21.00;99.90;;;;;;1043733;28;20024;-64
2022/08/07 01:52:30;;;;;;;2.90;1.60;;;21.00;99.90;;;;;;1043691;28;20683;-64
2022/08/07 01:53:02;;;;;;;1.75;1.50;;;21.00;99.90;;;;;;1043798;28;20021;-63
2022/08/07 01:53:35;;;;;;;2.75;1.50;;;21.00;99.90;;;;;;1043214;28;20049;-64
2022/08/07 01:54:08;;;;;;;2.13;1.70;;;21.00;99.90;;;;;;1043694;28;20040;-63
2022/08/07 01:54:41;;;;;;;1.80;1.55;;;21.00;99.90;;;;;;1043532;28;20104;-65
2022/08/07 01:55:14;;;;;;;1.90;1.42;;;21.00;99.90;;;;;;1043794;28;20039;-64
2022/08/07 01:55:48;;;;;;;1.90;1.55;;;21.00;99.90;;;;;;1043525;28;20016;-64
2022/08/07 01:56:26;;;;;;;1.77;1.52;;;21.00;99.90;;;;;;1043571;28;20503;-64
2022/08/07 01:57:31;;;;;;;1.88;1.67;;;21.00;99.90;;;;;;1043668;28;20021;-64
2022/08/07 01:58:08;;;;;;;2.17;1.58;;;21.00;99.90;;;;;;1038815;28;20124;-64
2022/08/07 01:58:51;;;;;;;4.25;1.70;;;21.00;99.90;;;;;;1039549;28;20028;-64
2022/08/07 01:59:34;;;;;;;2.15;1.75;;;21.00;99.90;;;;;;1041419;28;20097;-64
2022/08/07 02:00:11;;;;;;;2.60;1.75;;;21.00;99.90;;;;;;1043733;28;20019;-63
2022/08/07 02:00:43;;;;;;;2.65;1.63;;;21.00;99.90;;;;;;1039477;28;20075;-64
2022/08/07 02:01:23;;;;;;;3.92;1.58;;;21.00;99.90;;;;;;1042597;28;20028;-64
2022/08/07 02:02:01;;;;;;;2.92;1.88;;;20.90;99.90;;;;;;1043078;28;20496;-64
2022/08/07 02:02:41;;;;;;;2.10;1.60;;;20.90;99.90;;;;;;1043222;28;20005;-63
2022/08/07 02:03:14;;;;;;;1.95;1.58;;;21.00;99.90;;;;;;1043100;28;20013;-64
2022/08/07 02:03:50;;;;;;;3.10;2.25;;;20.90;99.90;;;;;;1043756;28;20052;-64
2022/08/07 02:04:53;;;;;;;1.80;1.60;;;20.90;99.90;;;;;;1043126;28;20048;-64
2022/08/07 02:05:40;;;;;;;1.63;1.50;;;20.90;99.90;;;;;;1043490;28;20009;-64
2022/08/07 02:06:14;;;;;;;3.17;1.83;;;20.90;99.90;;;;;;1043547;28;20017;-64
2022/08/07 02:06:45;;;;;;;4.85;1.95;;;20.90;99.90;;;;;;1043846;28;20625;-64
2022/08/07 02:07:18;;;;;;;2.10;1.57;;;20.90;99.90;;;;;;1043523;28;20419;-64
2022/08/07 02:07:51;;;;;;;3.17;1.95;;;20.90;99.90;;;;;;1042176;28;20104;-64
2022/08/07 02:08:25;;;;;;;2.42;1.95;;;20.90;99.90;;;;;;1039366;28;20021;-64
2022/08/07 02:08:58;;;;;;;2.05;1.63;;;20.90;99.90;;;;;;1039096;28;20017;-64
2022/08/07 02:09:31;;;;;;;3.20;1.85;;;20.90;99.90;;;;;;1040135;28;20021;-64
2022/08/07 02:10:04;;;;;;;2.72;1.52;;;20.90;99.90;;;;;;1043448;28;20110;-64
2022/08/07 02:10:36;;;;;;;2.03;1.52;;;20.90;99.90;;;;;;1043109;28;20657;-64
2022/08/07 02:11:08;;;;;;;2.63;1.80;;;20.80;99.90;;;;;;1043624;28;20012;-64
2022/08/07 02:11:42;;;;;;;2.50;1.60;;;20.80;99.90;;;;;;1043368;28;20095;-64
2022/08/07 02:12:17;;;;;;;2.58;1.83;;;20.80;99.90;;;;;;1043476;28;20016;-64
2022/08/07 02:12:49;;;;;;;1.75;1.52;;;20.80;99.90;;;;;;1043466;28;20013;-64
2022/08/07 02:13:23;;;;;;;2.40;1.67;;;20.80;99.90;;;;;;1042310;28;20001;-64
2022/08/07 02:13:57;;;;;;;2.80;1.63;;;20.80;99.90;;;;;;1039443;28;20017;-64
2022/08/07 02:14:28;;;;;;;1.98;1.77;;;20.80;99.90;;;;;;1041218;28;20691;-64
2022/08/07 02:15:00;;;;;;;4.10;1.77;;;20.80;99.90;;;;;;1043642;28;20016;-64
2022/08/07 02:15:33;;;;;;;2.92;2.05;;;20.80;99.90;;;;;;1043583;28;20331;-64
2022/08/07 02:16:05;;;;;;;2.67;1.80;;;20.80;99.90;;;;;;1043687;28;20009;-64
2022/08/07 02:16:37;;;;;;;3.75;1.90;;;20.80;99.90;;;;;;1043423;28;20035;-64
2022/08/07 02:17:11;;;;;;;5.07;2.05;;;20.80;99.90;;;;;;1043548;28;20434;-64
2022/08/07 02:17:43;;;;;;;2.78;2.00;;;20.80;99.90;;;;;;1043523;28;20467;-64
2022/08/07 02:18:15;;;;;;;2.88;1.80;;;20.80;99.90;;;;;;1043293;28;20036;-64
2022/08/07 02:18:48;;;;;;;2.72;1.80;;;20.80;99.90;;;;;;1043697;28;20100;-64
2022/08/07 02:19:19;;;;;;;3.25;1.90;;;20.80;99.90;;;;;;1043498;28;20602;-65
2022/08/07 02:19:52;;;;;;;3.13;1.55;;;20.80;99.90;;;;;;1043478;28;20207;-60
2022/08/07 02:20:24;;;;;;;2.70;2.00;;;20.80;99.90;;;;;;1043579;28;20021;-61
2022/08/07 02:20:56;;;;;;;2.10;1.60;;;20.80;99.90;;;;;;1043591;28;20013;-61
2022/08/07 02:21:27;;;;;;;2.83;1.83;;;20.80;99.90;;;;;;1043320;28;20479;-61
2022/08/07 02:21:59;;;;;;;3.38;1.75;;;20.80;99.90;;;;;;1040589;28;20375;-61
2022/08/07 02:22:31;;;;;;;2.28;1.70;;;;;;;;;;1038969;28;20096;-62
2022/08/07 02:23:04;;;;;;;4.57;2.22;;;20.80;99.90;;;;;;1040631;28;20052;-62
2022/08/07 02:23:38;;;;;;;4.50;2.13;;;20.80;99.90;;;;;;1043105;28;20071;-62
2022/08/07 02:24:11;;;;;;;3.03;1.92;;;20.80;99.90;;;;;;1043621;28;20117;-62
2022/08/07 02:24:43;;;;;;;3.08;2.28;;;20.80;99.90;;;;;;1043597;28;20048;-61
2022/08/07 02:25:17;;;;;;;2.72;2.10;;;20.80;99.90;;;;;;1043343;28;20348;-62
2022/08/07 02:25:48;;;;;;;2.47;2.00;;;20.80;99.90;;;;;;1043552;28;20768;-61
2022/08/07 02:26:20;;;;;;;4.05;1.95;;;20.70;99.90;;;;;;1043456;28;20571;-62
2022/08/07 02:26:51;;;;;;;4.57;1.92;;;20.70;99.90;;;;;;1043547;28;20017;-60
2022/08/07 02:27:25;;;;;;;2.53;1.77;;;20.80;99.90;;;;;;1043428;28;20028;-61
2022/08/07 02:27:58;;;;;;;2.65;2.20;;;20.60;99.90;;;;;;1043676;28;20021;-62
2022/08/07 02:28:30;;;;;;;2.22;1.63;;;20.80;99.90;;;;;;1043545;28;20533;-61
2022/08/07 02:29:07;;;;;;;3.67;1.83;;;20.70;99.90;;;;;;1043636;28;20387;-62
2022/08/07 02:29:39;;;;;;;2.40;1.90;;;20.70;99.90;;;;;;1043317;28;20025;-61
2022/08/07 02:30:11;;;;;;;3.38;1.73;;;20.70;99.90;;;;;;1043741;28;20040;-62
2022/08/07 02:30:42;;;;;;;2.13;1.83;;;20.70;99.90;;;;;;1043003;28;20398;-62
2022/08/07 02:31:13;;;;;;;1.95;1.75;;;20.70;99.90;;;;;;1043768;28;20344;-61
2022/08/07 02:31:44;;;;;;;2.33;1.90;;;20.70;99.90;;;;;;1043386;28;20473;-62
2022/08/07 02:32:17;;;;;;;2.42;2.05;;;20.70;99.90;;;;;;1043341;28;20044;-61
2022/08/07 02:32:49;;;;;;;2.47;2.17;;;20.70;99.90;;;;;;1043355;28;20025;-61
2022/08/07 02:33:24;;;;;;;4.30;2.15;;;20.70;99.90;;;;;;1043606;28;20024;-61
2022/08/07 02:33:56;;;;;;;3.70;2.22;;;20.70;99.90;;;;;;1043255;28;20021;-61
2022/08/07 02:34:28;;;;;;;2.35;1.65;;;20.70;99.90;;;;;;1043562;28;20028;-61
2022/08/07 02:34:59;;;;;;;2.35;2.00;;;20.60;99.90;;;;;;1043490;28;20025;-61
2022/08/07 02:35:32;;;;;;;3.28;1.90;;;20.70;99.90;;;;;;1043505;28;20056;-61
2022/08/07 02:36:05;;;;;;;2.88;1.92;;;20.70;99.90;;;;;;1043531;28;20480;-61
2022/08/07 02:36:37;;;;;;;2.45;1.77;;;20.70;99.90;;;;;;1043341;28;20013;-61
2022/08/07 02:37:09;;;;;;;2.90;2.00;;;20.70;99.90;;;;;;1043478;28;20686;-60
2022/08/07 02:37:40;;;;;;;2.92;2.15;;;20.70;99.90;;;;;;1043458;28;20021;-61
2022/08/07 02:38:13;;;;;;;2.75;1.90;;;20.70;99.90;;;;;;1040305;28;20479;-60
2022/08/07 02:38:44;;;;;;;2.95;2.05;;;20.70;99.90;;;;;;1039431;28;20014;-60
2022/08/07 02:39:17;;;;;;;3.42;1.70;;;20.70;99.90;;;;;;1043553;28;20410;-62
2022/08/07 02:39:49;;;;;;;2.40;1.90;;;;;;;;;;1043426;28;20104;-62
2022/08/07 02:40:20;;;;;;;2.55;2.08;;;20.60;99.90;;;;;;1043528;28;20390;-62
2022/08/07 02:40:51;;;;;;;3.77;2.23;;;20.70;99.90;;;;;;1043279;28;20403;-62
2022/08/07 02:41:23;;;;;;;7.10;2.10;;;20.70;99.90;;;;;;1043587;28;20045;-62
2022/08/07 02:41:54;;;;;;;3.00;2.15;;;20.70;99.90;;;;;;1043331;28;20741;-62
2022/08/07 02:42:25;;;;;;;4.18;1.88;;;20.70;99.90;;;;;;1043354;28;20005;-62
2022/08/07 02:42:57;;;;;;;2.17;1.80;;;20.70;99.90;;;;;;1040366;28;20005;-63
2022/08/07 02:43:29;;;;;;;2.38;1.85;;;20.70;99.90;;;;;;1039322;28;20108;-62
2022/08/07 02:44:00;;;;;;;2.05;1.80;;;20.70;99.90;;;;;;1040773;28;20025;-62
2022/08/07 02:44:32;;;;;;;2.63;1.90;;;20.60;99.90;;;;;;1043472;28;20013;-62
2022/08/07 02:45:06;;;;;;;2.30;1.92;;;20.60;99.90;;;;;;1043005;28;20074;-62
2022/08/07 02:45:41;;;;;;;3.25;1.73;;;20.60;99.90;;;;;;1042729;28;20020;-63
2022/08/07 02:46:12;;;;;;;4.53;1.80;;;20.60;99.90;;;;;;1043291;28;20013;-62
2022/08/07 02:46:46;;;;;;;3.50;1.80;;;20.60;99.90;;;;;;1043147;28;20017;-63